sensor_id;sensor_type;location;lat;lon;timestamp;P1;durP1;ratioP1;P2;durP2;ratioP2
38083;SDS011;23894;51.466;7.444;2023-04-25T00:01:34;19.63;;;9.40;;
38083;SDS011;23894;51.466;7.444;2023-04-25T00:03:37;18.00;;;8.32;;
38083;SDS011;23894;51.466;7.444;2023-04-25T00:05:40;18.60;;;8.98;;
38083;SDS011;23894;51.466;7.444;2023-04-25T00:07:42;19.50;;;9.50;;
38083;SDS011;23894;51.466;7.444;2023-04-25T00:09:44;21.73;;;9.68;;
38083;SDS011;23894;51.466;7.444;2023-04-25T00:11:47;18.40;;;9.00;;
38083;SDS011;23894;51.466;7.444;2023-04-25T00:13:48;20.33;;;9.30;;
38083;SDS011;23894;51.466;7.444;2023-04-25T00:15:51;18.07;;;9.10;;
38083;SDS011;23894;51.466;7.444;2023-04-25T00:17:54;17.20;;;9.32;;
38083;SDS011;23894;51.466;7.444;2023-04-25T00:19:56;20.67;;;9.75;;
38083;SDS011;23894;51.466;7.444;2023-04-25T00:21:59;19.05;;;9.13;;
38083;SDS011;23894;51.466;7.444;2023-04-25T00:24:02;17.23;;;9.43;;
38083;SDS011;23894;51.466;7.444;2023-04-25T00:26:04;23.63;;;10.30;;
38083;SDS011;23894;51.466;7.444;2023-04-25T00:28:06;16.73;;;9.38;;
38083;SDS011;23894;51.466;7.444;2023-04-25T00:30:07;19.75;;;9.45;;
38083;SDS011;23894;51.466;7.444;2023-04-25T00:32:10;19.42;;;9.30;;
38083;SDS011;23894;51.466;7.444;2023-04-25T00:34:11;17.42;;;9.38;;
38083;SDS011;23894;51.466;7.444;2023-04-25T00:36:13;17.63;;;8.93;;
38083;SDS011;23894;51.466;7.444;2023-04-25T00:38:16;18.67;;;9.15;;
38083;SDS011;23894;51.466;7.444;2023-04-25T00:40:19;21.50;;;9.85;;
38083;SDS011;23894;51.466;7.444;2023-04-25T00:42:21;18.52;;;9.15;;
38083;SDS011;23894;51.466;7.444;2023-04-25T00:44:23;20.15;;;9.50;;
38083;SDS011;23894;51.466;7.444;2023-04-25T00:46:26;18.27;;;9.70;;
38083;SDS011;23894;51.466;7.444;2023-04-25T00:48:28;19.80;;;9.67;;
38083;SDS011;23894;51.466;7.444;2023-04-25T00:50:32;16.58;;;9.07;;
38083;SDS011;23894;51.466;7.444;2023-04-25T00:52:39;17.02;;;9.90;;
38083;SDS011;23894;51.466;7.444;2023-04-25T00:54:42;20.63;;;10.30;;
38083;SDS011;23894;51.466;7.444;2023-04-25T00:56:44;18.48;;;9.82;;
38083;SDS011;23894;51.466;7.444;2023-04-25T00:58:47;20.73;;;9.90;;
38083;SDS011;23894;51.466;7.444;2023-04-25T01:00:50;18.35;;;9.93;;
38083;SDS011;23894;51.466;7.444;2023-04-25T01:02:53;18.77;;;10.23;;
38083;SDS011;23894;51.466;7.444;2023-04-25T01:04:55;18.77;;;10.53;;
38083;SDS011;23894;51.466;7.444;2023-04-25T01:06:57;19.15;;;10.00;;
38083;SDS011;23894;51.466;7.444;2023-04-25T01:09:00;18.30;;;10.48;;
38083;SDS011;23894;51.466;7.444;2023-04-25T01:11:02;18.50;;;10.00;;
38083;SDS011;23894;51.466;7.444;2023-04-25T01:13:04;18.53;;;10.20;;
38083;SDS011;23894;51.466;7.444;2023-04-25T01:15:05;17.92;;;10.05;;
38083;SDS011;23894;51.466;7.444;2023-04-25T01:17:08;20.20;;;10.43;;
38083;SDS011;23894;51.466;7.444;2023-04-25T01:19:11;19.20;;;10.43;;
38083;SDS011;23894;51.466;7.444;2023-04-25T01:21:14;18.75;;;9.93;;
38083;SDS011;23894;51.466;7.444;2023-04-25T01:23:16;17.98;;;10.10;;
38083;SDS011;23894;51.466;7.444;2023-04-25T01:25:19;20.40;;;10.20;;
38083;SDS011;23894;51.466;7.444;2023-04-25T01:27:22;19.42;;;10.32;;
38083;SDS011;23894;51.466;7.444;2023-04-25T01:29:24;15.68;;;10.07;;
38083;SDS011;23894;51.466;7.444;2023-04-25T01:31:27;18.40;;;11.05;;
38083;SDS011;23894;51.466;7.444;2023-04-25T01:33:30;19.73;;;11.30;;
38083;SDS011;23894;51.466;7.444;2023-04-25T01:35:32;17.13;;;10.90;;
38083;SDS011;23894;51.466;7.444;2023-04-25T01:37:35;19.92;;;11.38;;
38083;SDS011;23894;51.466;7.444;2023-04-25T01:39:37;23.08;;;12.18;;
38083;SDS011;23894;51.466;7.444;2023-04-25T01:41:38;19.48;;;12.05;;
38083;SDS011;23894;51.466;7.444;2023-04-25T01:43:42;21.08;;;12.25;;
38083;SDS011;23894;51.466;7.444;2023-04-25T01:45:44;19.75;;;11.63;;
38083;SDS011;23894;51.466;7.444;2023-04-25T01:47:47;20.30;;;12.88;;
38083;SDS011;23894;51.466;7.444;2023-04-25T01:49:51;22.00;;;12.63;;
38083;SDS011;23894;51.466;7.444;2023-04-25T01:51:53;21.90;;;12.98;;
38083;SDS011;23894;51.466;7.444;2023-04-25T01:53:56;21.85;;;14.07;;
38083;SDS011;23894;51.466;7.444;2023-04-25T01:55:58;22.30;;;13.80;;
38083;SDS011;23894;51.466;7.444;2023-04-25T01:58:02;22.67;;;14.00;;
38083;SDS011;23894;51.466;7.444;2023-04-25T02:00:04;23.13;;;13.55;;
38083;SDS011;23894;51.466;7.444;2023-04-25T02:02:08;20.80;;;14.18;;
38083;SDS011;23894;51.466;7.444;2023-04-25T02:04:10;23.10;;;13.80;;
38083;SDS011;23894;51.466;7.444;2023-04-25T02:06:12;23.02;;;14.50;;
38083;SDS011;23894;51.466;7.444;2023-04-25T02:08:16;20.85;;;14.50;;
38083;SDS011;23894;51.466;7.444;2023-04-25T02:10:20;21.55;;;15.55;;
38083;SDS011;23894;51.466;7.444;2023-04-25T02:12:22;20.90;;;14.85;;
38083;SDS011;23894;51.466;7.444;2023-04-25T02:14:24;20.83;;;15.07;;
38083;SDS011;23894;51.466;7.444;2023-04-25T02:16:25;24.52;;;15.38;;
38083;SDS011;23894;51.466;7.444;2023-04-25T02:18:28;22.75;;;14.63;;
38083;SDS011;23894;51.466;7.444;2023-04-25T02:20:30;20.90;;;15.63;;
38083;SDS011;23894;51.466;7.444;2023-04-25T02:22:31;23.40;;;15.45;;
38083;SDS011;23894;51.466;7.444;2023-04-25T02:24:35;24.17;;;15.48;;
38083;SDS011;23894;51.466;7.444;2023-04-25T02:26:37;23.50;;;15.80;;
38083;SDS011;23894;51.466;7.444;2023-04-25T02:28:39;21.33;;;15.95;;
38083;SDS011;23894;51.466;7.444;2023-04-25T02:30:41;20.85;;;15.88;;
38083;SDS011;23894;51.466;7.444;2023-04-25T02:32:43;22.77;;;15.67;;
38083;SDS011;23894;51.466;7.444;2023-04-25T02:34:45;23.42;;;16.25;;
38083;SDS011;23894;51.466;7.444;2023-04-25T02:36:49;22.35;;;16.27;;
38083;SDS011;23894;51.466;7.444;2023-04-25T02:38:54;22.27;;;16.60;;
38083;SDS011;23894;51.466;7.444;2023-04-25T02:40:56;25.45;;;16.60;;
38083;SDS011;23894;51.466;7.444;2023-04-25T02:42:59;22.70;;;16.33;;
38083;SDS011;23894;51.466;7.444;2023-04-25T02:45:01;24.70;;;17.08;;
38083;SDS011;23894;51.466;7.444;2023-04-25T02:47:04;21.02;;;15.93;;
38083;SDS011;23894;51.466;7.444;2023-04-25T02:49:06;22.85;;;17.88;;
38083;SDS011;23894;51.466;7.444;2023-04-25T02:51:10;25.20;;;19.05;;
38083;SDS011;23894;51.466;7.444;2023-04-25T02:53:12;24.95;;;17.35;;
38083;SDS011;23894;51.466;7.444;2023-04-25T02:55:13;26.73;;;18.90;;
38083;SDS011;23894;51.466;7.444;2023-04-25T02:57:15;24.60;;;18.42;;
38083;SDS011;23894;51.466;7.444;2023-04-25T02:59:17;26.73;;;19.13;;
38083;SDS011;23894;51.466;7.444;2023-04-25T03:01:20;25.15;;;17.75;;
38083;SDS011;23894;51.466;7.444;2023-04-25T03:03:22;22.75;;;16.63;;
38083;SDS011;23894;51.466;7.444;2023-04-25T03:05:24;25.15;;;17.20;;
38083;SDS011;23894;51.466;7.444;2023-04-25T03:07:26;24.10;;;16.23;;
38083;SDS011;23894;51.466;7.444;2023-04-25T03:09:28;23.77;;;16.83;;
38083;SDS011;23894;51.466;7.444;2023-04-25T03:11:31;23.27;;;16.77;;
38083;SDS011;23894;51.466;7.444;2023-04-25T03:13:33;23.07;;;16.27;;
38083;SDS011;23894;51.466;7.444;2023-04-25T03:15:36;23.63;;;15.40;;
38083;SDS011;23894;51.466;7.444;2023-04-25T03:17:38;21.07;;;14.97;;
38083;SDS011;23894;51.466;7.444;2023-04-25T03:19:40;20.50;;;15.90;;
38083;SDS011;23894;51.466;7.444;2023-04-25T03:21:43;22.15;;;15.25;;
38083;SDS011;23894;51.466;7.444;2023-04-25T03:23:44;23.33;;;14.80;;
38083;SDS011;23894;51.466;7.444;2023-04-25T03:25:47;19.95;;;14.63;;
38083;SDS011;23894;51.466;7.444;2023-04-25T03:27:49;20.98;;;14.00;;
38083;SDS011;23894;51.466;7.444;2023-04-25T03:29:52;19.17;;;13.82;;
38083;SDS011;23894;51.466;7.444;2023-04-25T03:31:54;19.65;;;13.27;;
38083;SDS011;23894;51.466;7.444;2023-04-25T03:33:56;23.58;;;14.07;;
38083;SDS011;23894;51.466;7.444;2023-04-25T03:35:58;22.33;;;14.23;;
38083;SDS011;23894;51.466;7.444;2023-04-25T03:38:00;23.23;;;14.30;;
38083;SDS011;23894;51.466;7.444;2023-04-25T03:40:03;21.30;;;13.63;;
38083;SDS011;23894;51.466;7.444;2023-04-25T03:42:05;21.90;;;13.38;;
38083;SDS011;23894;51.466;7.444;2023-04-25T03:44:07;19.63;;;12.95;;
38083;SDS011;23894;51.466;7.444;2023-04-25T03:46:10;24.98;;;12.65;;
38083;SDS011;23894;51.466;7.444;2023-04-25T03:48:12;22.42;;;12.68;;
38083;SDS011;23894;51.466;7.444;2023-04-25T03:50:14;21.17;;;12.32;;
38083;SDS011;23894;51.466;7.444;2023-04-25T03:52:16;20.63;;;12.43;;
38083;SDS011;23894;51.466;7.444;2023-04-25T03:54:18;22.58;;;13.27;;
38083;SDS011;23894;51.466;7.444;2023-04-25T03:56:21;21.70;;;12.80;;
38083;SDS011;23894;51.466;7.444;2023-04-25T03:58:23;23.33;;;12.18;;
38083;SDS011;23894;51.466;7.444;2023-04-25T04:00:26;25.10;;;12.65;;
38083;SDS011;23894;51.466;7.444;2023-04-25T04:02:27;20.98;;;12.15;;
38083;SDS011;23894;51.466;7.444;2023-04-25T04:04:29;20.90;;;12.27;;
38083;SDS011;23894;51.466;7.444;2023-04-25T04:06:32;20.87;;;11.90;;
38083;SDS011;23894;51.466;7.444;2023-04-25T04:08:35;20.45;;;11.65;;
38083;SDS011;23894;51.466;7.444;2023-04-25T04:10:37;23.08;;;12.23;;
38083;SDS011;23894;51.466;7.444;2023-04-25T04:12:39;22.73;;;11.82;;
38083;SDS011;23894;51.466;7.444;2023-04-25T04:14:42;19.45;;;11.55;;
38083;SDS011;23894;51.466;7.444;2023-04-25T04:16:44;22.70;;;12.70;;
38083;SDS011;23894;51.466;7.444;2023-04-25T04:18:46;22.70;;;12.68;;
38083;SDS011;23894;51.466;7.444;2023-04-25T04:20:49;21.25;;;12.20;;
38083;SDS011;23894;51.466;7.444;2023-04-25T04:22:51;22.10;;;12.18;;
38083;SDS011;23894;51.466;7.444;2023-04-25T04:24:53;11.50;;;5.47;;
38083;SDS011;23894;51.466;7.444;2023-04-25T04:26:58;7.70;;;4.03;;
38083;SDS011;23894;51.466;7.444;2023-04-25T04:29:00;8.63;;;4.10;;
38083;SDS011;23894;51.466;7.444;2023-04-25T04:31:02;9.48;;;4.22;;
38083;SDS011;23894;51.466;7.444;2023-04-25T04:33:05;9.73;;;4.30;;
38083;SDS011;23894;51.466;7.444;2023-04-25T04:35:07;9.13;;;4.00;;
38083;SDS011;23894;51.466;7.444;2023-04-25T04:37:10;10.20;;;4.55;;
38083;SDS011;23894;51.466;7.444;2023-04-25T04:39:14;8.80;;;4.05;;
38083;SDS011;23894;51.466;7.444;2023-04-25T04:41:16;11.17;;;4.10;;
38083;SDS011;23894;51.466;7.444;2023-04-25T04:43:20;8.98;;;4.15;;
38083;SDS011;23894;51.466;7.444;2023-04-25T04:45:24;7.30;;;3.85;;
38083;SDS011;23894;51.466;7.444;2023-04-25T04:47:28;9.35;;;4.18;;
38083;SDS011;23894;51.466;7.444;2023-04-25T04:49:35;9.55;;;3.92;;
38083;SDS011;23894;51.466;7.444;2023-04-25T04:51:37;8.63;;;3.63;;
38083;SDS011;23894;51.466;7.444;2023-04-25T04:53:38;8.90;;;3.88;;
38083;SDS011;23894;51.466;7.444;2023-04-25T04:55:40;8.70;;;3.60;;
38083;SDS011;23894;51.466;7.444;2023-04-25T04:57:41;7.70;;;4.00;;
38083;SDS011;23894;51.466;7.444;2023-04-25T04:59:42;9.25;;;4.18;;
38083;SDS011;23894;51.466;7.444;2023-04-25T05:01:43;11.00;;;4.20;;
38083;SDS011;23894;51.466;7.444;2023-04-25T05:03:44;8.35;;;4.20;;
38083;SDS011;23894;51.466;7.444;2023-04-25T05:05:45;9.63;;;4.70;;
38083;SDS011;23894;51.466;7.444;2023-04-25T05:07:46;8.55;;;4.55;;
38083;SDS011;23894;51.466;7.444;2023-04-25T05:09:47;9.52;;;4.60;;
38083;SDS011;23894;51.466;7.444;2023-04-25T05:11:48;8.80;;;4.85;;
38083;SDS011;23894;51.466;7.444;2023-04-25T05:13:49;10.80;;;4.55;;
38083;SDS011;23894;51.466;7.444;2023-04-25T05:15:50;9.52;;;4.82;;
38083;SDS011;23894;51.466;7.444;2023-04-25T05:17:51;9.85;;;4.95;;
38083;SDS011;23894;51.466;7.444;2023-04-25T05:19:52;11.02;;;5.22;;
38083;SDS011;23894;51.466;7.444;2023-04-25T05:21:53;10.10;;;5.38;;
38083;SDS011;23894;51.466;7.444;2023-04-25T05:23:54;10.60;;;5.32;;
38083;SDS011;23894;51.466;7.444;2023-04-25T05:25:56;12.88;;;5.40;;
38083;SDS011;23894;51.466;7.444;2023-04-25T05:27:57;13.25;;;5.70;;
38083;SDS011;23894;51.466;7.444;2023-04-25T05:29:58;13.50;;;5.95;;
38083;SDS011;23894;51.466;7.444;2023-04-25T05:31:59;13.60;;;5.65;;
38083;SDS011;23894;51.466;7.444;2023-04-25T05:34:00;13.17;;;6.00;;
38083;SDS011;23894;51.466;7.444;2023-04-25T05:36:01;14.90;;;7.28;;
38083;SDS011;23894;51.466;7.444;2023-04-25T05:38:02;13.43;;;6.13;;
38083;SDS011;23894;51.466;7.444;2023-04-25T05:40:03;17.75;;;6.30;;
38083;SDS011;23894;51.466;7.444;2023-04-25T05:42:06;13.75;;;6.05;;
38083;SDS011;23894;51.466;7.444;2023-04-25T05:44:07;15.98;;;5.70;;
38083;SDS011;23894;51.466;7.444;2023-04-25T05:46:09;15.05;;;6.55;;
38083;SDS011;23894;51.466;7.444;2023-04-25T05:48:10;12.77;;;5.47;;
38083;SDS011;23894;51.466;7.444;2023-04-25T05:50:11;17.38;;;6.03;;
38083;SDS011;23894;51.466;7.444;2023-04-25T05:52:12;17.55;;;6.40;;
38083;SDS011;23894;51.466;7.444;2023-04-25T05:54:13;16.48;;;6.30;;
38083;SDS011;23894;51.466;7.444;2023-04-25T05:56:14;19.17;;;6.60;;
38083;SDS011;23894;51.466;7.444;2023-04-25T05:58:15;17.70;;;6.60;;
38083;SDS011;23894;51.466;7.444;2023-04-25T06:00:16;16.95;;;6.50;;
38083;SDS011;23894;51.466;7.444;2023-04-25T06:02:19;14.88;;;6.85;;
38083;SDS011;23894;51.466;7.444;2023-04-25T06:04:21;17.52;;;7.05;;
38083;SDS011;23894;51.466;7.444;2023-04-25T06:06:22;19.88;;;7.07;;
38083;SDS011;23894;51.466;7.444;2023-04-25T06:08:23;17.80;;;7.80;;
38083;SDS011;23894;51.466;7.444;2023-04-25T06:10:24;16.85;;;7.90;;
38083;SDS011;23894;51.466;7.444;2023-04-25T06:12:25;18.42;;;8.82;;
38083;SDS011;23894;51.466;7.444;2023-04-25T06:14:26;19.10;;;9.63;;
38083;SDS011;23894;51.466;7.444;2023-04-25T06:16:27;18.98;;;9.55;;
38083;SDS011;23894;51.466;7.444;2023-04-25T06:18:28;25.55;;;11.52;;
38083;SDS011;23894;51.466;7.444;2023-04-25T06:20:29;22.25;;;11.32;;
38083;SDS011;23894;51.466;7.444;2023-04-25T06:22:30;20.80;;;12.00;;
38083;SDS011;23894;51.466;7.444;2023-04-25T06:24:31;22.05;;;11.82;;
38083;SDS011;23894;51.466;7.444;2023-04-25T06:26:32;20.00;;;11.82;;
38083;SDS011;23894;51.466;7.444;2023-04-25T06:28:33;21.65;;;11.85;;
38083;SDS011;23894;51.466;7.444;2023-04-25T06:30:34;23.48;;;12.25;;
38083;SDS011;23894;51.466;7.444;2023-04-25T06:32:35;22.30;;;11.90;;
38083;SDS011;23894;51.466;7.444;2023-04-25T06:34:36;20.58;;;11.52;;
38083;SDS011;23894;51.466;7.444;2023-04-25T06:36:37;27.60;;;11.98;;
38083;SDS011;23894;51.466;7.444;2023-04-25T06:38:38;24.15;;;12.68;;
38083;SDS011;23894;51.466;7.444;2023-04-25T06:40:40;25.98;;;12.40;;
38083;SDS011;23894;51.466;7.444;2023-04-25T06:42:41;24.30;;;11.47;;
38083;SDS011;23894;51.466;7.444;2023-04-25T06:44:42;21.90;;;11.20;;
38083;SDS011;23894;51.466;7.444;2023-04-25T06:46:43;23.42;;;11.80;;
38083;SDS011;23894;51.466;7.444;2023-04-25T06:48:44;22.25;;;11.80;;
38083;SDS011;23894;51.466;7.444;2023-04-25T06:50:45;22.57;;;11.40;;
38083;SDS011;23894;51.466;7.444;2023-04-25T06:52:46;21.43;;;10.47;;
38083;SDS011;23894;51.466;7.444;2023-04-25T06:54:47;23.07;;;9.60;;
38083;SDS011;23894;51.466;7.444;2023-04-25T06:56:48;23.90;;;9.77;;
38083;SDS011;23894;51.466;7.444;2023-04-25T06:58:49;22.27;;;8.75;;
38083;SDS011;23894;51.466;7.444;2023-04-25T07:00:50;21.67;;;8.48;;
38083;SDS011;23894;51.466;7.444;2023-04-25T07:02:51;20.92;;;7.40;;
38083;SDS011;23894;51.466;7.444;2023-04-25T07:04:52;19.52;;;7.70;;
38083;SDS011;23894;51.466;7.444;2023-04-25T07:06:56;19.67;;;7.40;;
38083;SDS011;23894;51.466;7.444;2023-04-25T07:08:57;23.23;;;8.27;;
38083;SDS011;23894;51.466;7.444;2023-04-25T07:10:58;23.40;;;8.53;;
38083;SDS011;23894;51.466;7.444;2023-04-25T07:12:59;17.70;;;7.53;;
38083;SDS011;23894;51.466;7.444;2023-04-25T07:15:00;20.07;;;7.53;;
38083;SDS011;23894;51.466;7.444;2023-04-25T07:17:05;20.80;;;7.63;;
38083;SDS011;23894;51.466;7.444;2023-04-25T07:19:07;20.30;;;7.20;;
38083;SDS011;23894;51.466;7.444;2023-04-25T07:21:08;21.70;;;7.10;;
38083;SDS011;23894;51.466;7.444;2023-04-25T07:23:09;20.27;;;6.53;;
38083;SDS011;23894;51.466;7.444;2023-04-25T07:25:10;26.30;;;6.75;;
38083;SDS011;23894;51.466;7.444;2023-04-25T07:27:11;21.52;;;5.80;;
38083;SDS011;23894;51.466;7.444;2023-04-25T07:29:12;18.88;;;5.68;;
38083;SDS011;23894;51.466;7.444;2023-04-25T07:31:13;18.60;;;5.20;;
38083;SDS011;23894;51.466;7.444;2023-04-25T07:33:14;24.38;;;6.50;;
38083;SDS011;23894;51.466;7.444;2023-04-25T07:35:15;17.17;;;5.57;;
38083;SDS011;23894;51.466;7.444;2023-04-25T07:37:16;27.15;;;6.40;;
38083;SDS011;23894;51.466;7.444;2023-04-25T07:39:18;15.73;;;5.22;;
38083;SDS011;23894;51.466;7.444;2023-04-25T07:41:19;18.30;;;5.90;;
38083;SDS011;23894;51.466;7.444;2023-04-25T07:43:20;17.42;;;5.78;;
38083;SDS011;23894;51.466;7.444;2023-04-25T07:45:21;19.60;;;6.82;;
38083;SDS011;23894;51.466;7.444;2023-04-25T07:47:23;15.88;;;5.82;;
38083;SDS011;23894;51.466;7.444;2023-04-25T07:49:24;17.15;;;5.82;;
38083;SDS011;23894;51.466;7.444;2023-04-25T07:51:25;19.17;;;6.00;;
38083;SDS011;23894;51.466;7.444;2023-04-25T07:53:27;19.13;;;5.40;;
38083;SDS011;23894;51.466;7.444;2023-04-25T07:55:28;22.17;;;5.97;;
38083;SDS011;23894;51.466;7.444;2023-04-25T07:57:29;18.75;;;5.95;;
38083;SDS011;23894;51.466;7.444;2023-04-25T07:59:30;19.52;;;5.45;;
38083;SDS011;23894;51.466;7.444;2023-04-25T08:01:31;17.07;;;5.67;;
38083;SDS011;23894;51.466;7.444;2023-04-25T08:03:32;18.77;;;5.77;;
38083;SDS011;23894;51.466;7.444;2023-04-25T08:05:33;23.67;;;5.90;;
38083;SDS011;23894;51.466;7.444;2023-04-25T08:07:35;18.70;;;5.60;;
38083;SDS011;23894;51.466;7.444;2023-04-25T08:09:36;16.77;;;5.57;;
38083;SDS011;23894;51.466;7.444;2023-04-25T08:11:37;18.45;;;5.20;;
38083;SDS011;23894;51.466;7.444;2023-04-25T08:13:38;19.23;;;5.55;;
38083;SDS011;23894;51.466;7.444;2023-04-25T08:15:39;17.08;;;5.75;;
38083;SDS011;23894;51.466;7.444;2023-04-25T08:17:40;19.63;;;6.07;;
38083;SDS011;23894;51.466;7.444;2023-04-25T08:19:42;17.20;;;5.60;;
38083;SDS011;23894;51.466;7.444;2023-04-25T08:21:43;23.65;;;6.07;;
38083;SDS011;23894;51.466;7.444;2023-04-25T08:23:44;21.75;;;6.15;;
38083;SDS011;23894;51.466;7.444;2023-04-25T08:25:45;15.45;;;5.35;;
38083;SDS011;23894;51.466;7.444;2023-04-25T08:27:46;16.58;;;5.25;;
38083;SDS011;23894;51.466;7.444;2023-04-25T08:29:47;25.85;;;6.15;;
38083;SDS011;23894;51.466;7.444;2023-04-25T08:31:49;17.65;;;5.63;;
38083;SDS011;23894;51.466;7.444;2023-04-25T08:33:50;14.45;;;5.18;;
38083;SDS011;23894;51.466;7.444;2023-04-25T08:35:51;17.10;;;5.38;;
38083;SDS011;23894;51.466;7.444;2023-04-25T08:37:52;18.60;;;5.35;;
38083;SDS011;23894;51.466;7.444;2023-04-25T08:39:54;14.20;;;4.45;;
38083;SDS011;23894;51.466;7.444;2023-04-25T08:41:56;13.23;;;4.60;;
38083;SDS011;23894;51.466;7.444;2023-04-25T08:43:57;16.33;;;4.40;;
38083;SDS011;23894;51.466;7.444;2023-04-25T08:46:00;30.92;;;6.70;;
38083;SDS011;23894;51.466;7.444;2023-04-25T08:48:01;17.27;;;4.68;;
38083;SDS011;23894;51.466;7.444;2023-04-25T08:50:03;13.55;;;4.20;;
38083;SDS011;23894;51.466;7.444;2023-04-25T08:52:05;15.23;;;4.60;;
38083;SDS011;23894;51.466;7.444;2023-04-25T08:54:11;14.05;;;3.97;;
38083;SDS011;23894;51.466;7.444;2023-04-25T08:56:12;17.60;;;4.75;;
38083;SDS011;23894;51.466;7.444;2023-04-25T08:58:18;14.80;;;4.38;;
38083;SDS011;23894;51.466;7.444;2023-04-25T09:00:19;14.55;;;4.30;;
38083;SDS011;23894;51.466;7.444;2023-04-25T09:02:20;11.98;;;3.72;;
38083;SDS011;23894;51.466;7.444;2023-04-25T09:04:21;16.45;;;4.10;;
38083;SDS011;23894;51.466;7.444;2023-04-25T09:06:22;13.82;;;3.70;;
38083;SDS011;23894;51.466;7.444;2023-04-25T09:08:24;14.52;;;4.20;;
38083;SDS011;23894;51.466;7.444;2023-04-25T09:10:26;14.27;;;3.97;;
38083;SDS011;23894;51.466;7.444;2023-04-25T09:12:27;13.73;;;3.70;;
38083;SDS011;23894;51.466;7.444;2023-04-25T09:14:29;11.85;;;3.80;;
38083;SDS011;23894;51.466;7.444;2023-04-25T09:16:30;12.85;;;3.75;;
38083;SDS011;23894;51.466;7.444;2023-04-25T09:18:32;10.90;;;3.65;;
38083;SDS011;23894;51.466;7.444;2023-04-25T09:20:34;11.48;;;3.38;;
38083;SDS011;23894;51.466;7.444;2023-04-25T09:22:41;13.18;;;3.80;;
38083;SDS011;23894;51.466;7.444;2023-04-25T09:24:43;10.60;;;3.30;;
38083;SDS011;23894;51.466;7.444;2023-04-25T09:26:45;13.25;;;3.50;;
38083;SDS011;23894;51.466;7.444;2023-04-25T09:28:47;10.20;;;3.75;;
38083;SDS011;23894;51.466;7.444;2023-04-25T09:30:48;11.73;;;3.10;;
38083;SDS011;23894;51.466;7.444;2023-04-25T09:32:49;11.13;;;3.53;;
38083;SDS011;23894;51.466;7.444;2023-04-25T09:34:59;11.85;;;3.30;;
38083;SDS011;23894;51.466;7.444;2023-04-25T09:37:01;9.65;;;3.22;;
38083;SDS011;23894;51.466;7.444;2023-04-25T09:39:02;11.20;;;3.30;;
38083;SDS011;23894;51.466;7.444;2023-04-25T09:41:03;10.38;;;3.53;;
38083;SDS011;23894;51.466;7.444;2023-04-25T09:43:08;9.27;;;3.33;;
38083;SDS011;23894;51.466;7.444;2023-04-25T09:45:11;10.02;;;3.35;;
38083;SDS011;23894;51.466;7.444;2023-04-25T09:47:16;12.18;;;3.42;;
38083;SDS011;23894;51.466;7.444;2023-04-25T09:49:17;10.18;;;3.03;;
38083;SDS011;23894;51.466;7.444;2023-04-25T09:51:20;10.43;;;3.30;;
38083;SDS011;23894;51.466;7.444;2023-04-25T09:53:27;10.73;;;3.38;;
38083;SDS011;23894;51.466;7.444;2023-04-25T09:55:28;9.85;;;3.88;;
38083;SDS011;23894;51.466;7.444;2023-04-25T09:57:29;10.70;;;3.60;;
38083;SDS011;23894;51.466;7.444;2023-04-25T09:59:31;11.95;;;3.50;;
38083;SDS011;23894;51.466;7.444;2023-04-25T10:01:32;10.10;;;3.50;;
38083;SDS011;23894;51.466;7.444;2023-04-25T10:03:34;10.43;;;3.17;;
38083;SDS011;23894;51.466;7.444;2023-04-25T10:05:35;10.30;;;3.30;;
38083;SDS011;23894;51.466;7.444;2023-04-25T10:07:38;9.57;;;3.10;;
38083;SDS011;23894;51.466;7.444;2023-04-25T10:09:39;11.32;;;3.03;;
38083;SDS011;23894;51.466;7.444;2023-04-25T10:11:41;8.73;;;2.87;;
38083;SDS011;23894;51.466;7.444;2023-04-25T10:13:42;10.10;;;2.73;;
38083;SDS011;23894;51.466;7.444;2023-04-25T10:15:43;8.30;;;2.70;;
38083;SDS011;23894;51.466;7.444;2023-04-25T10:18:03;9.67;;;2.97;;
38083;SDS011;23894;51.466;7.444;2023-04-25T10:20:04;12.03;;;3.10;;
38083;SDS011;23894;51.466;7.444;2023-04-25T10:22:14;9.05;;;2.85;;
38083;SDS011;23894;51.466;7.444;2023-04-25T10:24:18;8.15;;;2.75;;
38083;SDS011;23894;51.466;7.444;2023-04-25T10:26:20;8.10;;;2.55;;
38083;SDS011;23894;51.466;7.444;2023-04-25T10:28:22;10.02;;;2.92;;
38083;SDS011;23894;51.466;7.444;2023-04-25T10:30:23;8.60;;;2.65;;
38083;SDS011;23894;51.466;7.444;2023-04-25T10:32:24;7.93;;;2.30;;
38083;SDS011;23894;51.466;7.444;2023-04-25T10:34:41;7.00;;;2.33;;
38083;SDS011;23894;51.466;7.444;2023-04-25T10:36:47;7.50;;;2.40;;
38083;SDS011;23894;51.466;7.444;2023-04-25T10:38:51;8.20;;;2.70;;
38083;SDS011;23894;51.466;7.444;2023-04-25T10:41:04;8.15;;;2.60;;
38083;SDS011;23894;51.466;7.444;2023-04-25T10:43:50;7.60;;;2.47;;
38083;SDS011;23894;51.466;7.444;2023-04-25T10:45:43;7.55;;;2.55;;
38083;SDS011;23894;51.466;7.444;2023-04-25T10:47:51;7.17;;;2.20;;
38083;SDS011;23894;51.466;7.444;2023-04-25T10:49:52;8.55;;;2.85;;
38083;SDS011;23894;51.466;7.444;2023-04-25T10:51:58;9.63;;;2.67;;
38083;SDS011;23894;51.466;7.444;2023-04-25T10:54:11;8.57;;;2.72;;
38083;SDS011;23894;51.466;7.444;2023-04-25T10:56:19;10.35;;;2.90;;
38083;SDS011;23894;51.466;7.444;2023-04-25T10:58:22;7.93;;;2.63;;
38083;SDS011;23894;51.466;7.444;2023-04-25T11:00:23;7.60;;;2.70;;
38083;SDS011;23894;51.466;7.444;2023-04-25T11:02:27;9.98;;;2.88;;
38083;SDS011;23894;51.466;7.444;2023-04-25T11:04:29;9.95;;;3.08;;
38083;SDS011;23894;51.466;7.444;2023-04-25T11:08:40;9.90;;;2.90;;
38083;SDS011;23894;51.466;7.444;2023-04-25T11:10:46;9.53;;;2.60;;
38083;SDS011;23894;51.466;7.444;2023-04-25T11:12:47;8.65;;;2.50;;
38083;SDS011;23894;51.466;7.444;2023-04-25T11:14:48;8.23;;;2.33;;
38083;SDS011;23894;51.466;7.444;2023-04-25T11:16:56;8.20;;;2.45;;
38083;SDS011;23894;51.466;7.444;2023-04-25T11:18:57;7.88;;;2.67;;
38083;SDS011;23894;51.466;7.444;2023-04-25T11:20:58;9.90;;;2.70;;
38083;SDS011;23894;51.466;7.444;2023-04-25T11:23:00;9.43;;;2.90;;
38083;SDS011;23894;51.466;7.444;2023-04-25T11:25:04;9.97;;;2.70;;
38083;SDS011;23894;51.466;7.444;2023-04-25T11:27:07;8.85;;;3.03;;
38083;SDS011;23894;51.466;7.444;2023-04-25T11:29:09;8.93;;;3.17;;
38083;SDS011;23894;51.466;7.444;2023-04-25T11:31:10;8.80;;;2.90;;
38083;SDS011;23894;51.466;7.444;2023-04-25T11:33:11;8.75;;;2.95;;
38083;SDS011;23894;51.466;7.444;2023-04-25T11:35:12;9.50;;;3.03;;
38083;SDS011;23894;51.466;7.444;2023-04-25T11:37:13;10.90;;;3.45;;
38083;SDS011;23894;51.466;7.444;2023-04-25T11:39:14;10.10;;;3.30;;
38083;SDS011;23894;51.466;7.444;2023-04-25T11:41:16;9.25;;;3.58;;
38083;SDS011;23894;51.466;7.444;2023-04-25T11:43:17;9.90;;;3.13;;
38083;SDS011;23894;51.466;7.444;2023-04-25T11:45:18;10.85;;;3.80;;
38083;SDS011;23894;51.466;7.444;2023-04-25T11:47:19;8.73;;;2.97;;
38083;SDS011;23894;51.466;7.444;2023-04-25T11:49:20;8.93;;;2.90;;
38083;SDS011;23894;51.466;7.444;2023-04-25T11:51:22;8.63;;;2.43;;
38083;SDS011;23894;51.466;7.444;2023-04-25T11:53:23;9.20;;;2.30;;
38083;SDS011;23894;51.466;7.444;2023-04-25T11:55:24;7.43;;;2.38;;
38083;SDS011;23894;51.466;7.444;2023-04-25T11:57:26;7.30;;;2.75;;
38083;SDS011;23894;51.466;7.444;2023-04-25T11:59:27;7.50;;;2.63;;
38083;SDS011;23894;51.466;7.444;2023-04-25T12:01:32;7.47;;;2.20;;
38083;SDS011;23894;51.466;7.444;2023-04-25T12:03:33;7.72;;;2.30;;
38083;SDS011;23894;51.466;7.444;2023-04-25T12:05:34;7.40;;;2.33;;
38083;SDS011;23894;51.466;7.444;2023-04-25T12:07:35;8.48;;;1.70;;